LIRS/GRS METAR and TAF weather

Enter ICAO airport designator
Station Type Date Time Source
LIRS METAR 2019/08/25 01:55 UTC NOAA

LIRS 250155Z 06004KT CAVOK 21/18 Q1015


Station Type Date Time Source
LIRS Decoded METAR 2019/08/25 01:55 UTC NOAA

Station name not available
Aug 24, 2019 - 09:55 PM EDT / 2019.08.25 0155 UTC
Wind: from the ENE (060 degrees) at 5 MPH (4 KT):0
Visibility: greater than 7 mile(s):0
Temperature: 69 F (21 C)
Dew Point: 64 F (18 C)
Relative Humidity: 82%
Pressure (altimeter): 29.97 in. Hg (1015 hPa)
ob: LIRS 250155Z 06004KT CAVOK 21/18 Q1015
cycle: 2

Station Type Date Time Source
LIRS TAF 2018/06/29 09:24 UTC NOAA

TAF TAF LIRS 290800Z 2909/2921 VRB03KT 9999 FEW030
BECMG 2911/2913 24015KT

Example: see airport list